sensor_id;sensor_type;location;lat;lon;timestamp;P1;durP1;ratioP1;P2;durP2;ratioP2
595;SDS011;19946;49.306;11.350;2023-04-25T00:02:57;0.80;;;0.80;;
595;SDS011;19946;49.306;11.350;2023-04-25T00:05:59;0.60;;;0.60;;
595;SDS011;19946;49.306;11.350;2023-04-25T00:09:03;0.40;;;0.40;;
595;SDS011;19946;49.306;11.350;2023-04-25T00:12:07;0.70;;;0.70;;
595;SDS011;19946;49.306;11.350;2023-04-25T00:15:08;0.70;;;0.70;;
595;SDS011;19946;49.306;11.350;2023-04-25T00:18:09;1.00;;;1.00;;
595;SDS011;19946;49.306;11.350;2023-04-25T00:21:11;0.90;;;0.90;;
595;SDS011;19946;49.306;11.350;2023-04-25T00:24:12;0.50;;;0.50;;
595;SDS011;19946;49.306;11.350;2023-04-25T00:27:12;0.70;;;0.70;;
595;SDS011;19946;49.306;11.350;2023-04-25T00:30:13;0.60;;;0.60;;
595;SDS011;19946;49.306;11.350;2023-04-25T00:33:14;0.60;;;0.60;;
595;SDS011;19946;49.306;11.350;2023-04-25T00:36:14;0.50;;;0.50;;
595;SDS011;19946;49.306;11.350;2023-04-25T00:39:14;0.83;;;0.83;;
595;SDS011;19946;49.306;11.350;2023-04-25T00:42:15;0.60;;;0.60;;
595;SDS011;19946;49.306;11.350;2023-04-25T00:45:15;0.70;;;0.70;;
595;SDS011;19946;49.306;11.350;2023-04-25T00:48:17;0.80;;;0.80;;
595;SDS011;19946;49.306;11.350;2023-04-25T00:51:19;0.73;;;0.73;;
595;SDS011;19946;49.306;11.350;2023-04-25T00:54:20;0.73;;;0.73;;
595;SDS011;19946;49.306;11.350;2023-04-25T00:57:20;0.80;;;0.80;;
595;SDS011;19946;49.306;11.350;2023-04-25T01:00:21;0.80;;;0.80;;
595;SDS011;19946;49.306;11.350;2023-04-25T01:03:21;0.60;;;0.60;;
595;SDS011;19946;49.306;11.350;2023-04-25T01:06:22;0.60;;;0.60;;
595;SDS011;19946;49.306;11.350;2023-04-25T01:09:22;0.60;;;0.60;;
595;SDS011;19946;49.306;11.350;2023-04-25T01:12:23;0.70;;;0.70;;
595;SDS011;19946;49.306;11.350;2023-04-25T01:15:24;0.80;;;0.80;;
595;SDS011;19946;49.306;11.350;2023-04-25T01:18:24;0.90;;;0.90;;
595;SDS011;19946;49.306;11.350;2023-04-25T01:21:25;0.50;;;0.50;;
595;SDS011;19946;49.306;11.350;2023-04-25T01:24:28;0.70;;;0.70;;
595;SDS011;19946;49.306;11.350;2023-04-25T01:27:29;0.50;;;0.50;;
595;SDS011;19946;49.306;11.350;2023-04-25T01:30:30;0.60;;;0.60;;
595;SDS011;19946;49.306;11.350;2023-04-25T01:33:31;0.50;;;0.50;;
595;SDS011;19946;49.306;11.350;2023-04-25T01:36:31;0.40;;;0.40;;
595;SDS011;19946;49.306;11.350;2023-04-25T01:39:32;0.40;;;0.40;;
595;SDS011;19946;49.306;11.350;2023-04-25T01:42:34;0.50;;;0.50;;
595;SDS011;19946;49.306;11.350;2023-04-25T01:45:35;0.50;;;0.50;;
595;SDS011;19946;49.306;11.350;2023-04-25T01:48:36;0.60;;;0.60;;
595;SDS011;19946;49.306;11.350;2023-04-25T01:51:37;0.50;;;0.50;;
595;SDS011;19946;49.306;11.350;2023-04-25T01:54:37;0.40;;;0.40;;
595;SDS011;19946;49.306;11.350;2023-04-25T01:57:38;0.40;;;0.40;;
595;SDS011;19946;49.306;11.350;2023-04-25T02:00:38;0.50;;;0.50;;
595;SDS011;19946;49.306;11.350;2023-04-25T02:03:40;0.40;;;0.40;;
595;SDS011;19946;49.306;11.350;2023-04-25T02:06:47;0.50;;;0.50;;
595;SDS011;19946;49.306;11.350;2023-04-25T02:09:49;0.40;;;0.40;;
595;SDS011;19946;49.306;11.350;2023-04-25T02:12:50;0.60;;;0.60;;
595;SDS011;19946;49.306;11.350;2023-04-25T02:16:12;0.60;;;0.60;;
595;SDS011;19946;49.306;11.350;2023-04-25T02:19:13;0.60;;;0.60;;
595;SDS011;19946;49.306;11.350;2023-04-25T02:22:13;0.50;;;0.50;;
595;SDS011;19946;49.306;11.350;2023-04-25T02:25:14;0.60;;;0.60;;
595;SDS011;19946;49.306;11.350;2023-04-25T02:28:16;0.80;;;0.80;;
595;SDS011;19946;49.306;11.350;2023-04-25T02:31:16;0.70;;;0.70;;
595;SDS011;19946;49.306;11.350;2023-04-25T02:34:16;0.70;;;0.70;;
595;SDS011;19946;49.306;11.350;2023-04-25T02:37:19;0.70;;;0.70;;
595;SDS011;19946;49.306;11.350;2023-04-25T02:40:20;1.13;;;1.13;;
595;SDS011;19946;49.306;11.350;2023-04-25T02:43:20;1.37;;;1.37;;
595;SDS011;19946;49.306;11.350;2023-04-25T02:46:22;1.30;;;1.30;;
595;SDS011;19946;49.306;11.350;2023-04-25T02:49:22;1.10;;;1.10;;
595;SDS011;19946;49.306;11.350;2023-04-25T02:52:22;1.30;;;1.30;;
595;SDS011;19946;49.306;11.350;2023-04-25T02:55:31;1.00;;;1.00;;
595;SDS011;19946;49.306;11.350;2023-04-25T02:58:33;1.00;;;1.00;;
595;SDS011;19946;49.306;11.350;2023-04-25T03:01:35;1.03;;;1.03;;
595;SDS011;19946;49.306;11.350;2023-04-25T03:04:36;1.10;;;1.10;;
595;SDS011;19946;49.306;11.350;2023-04-25T03:07:36;1.00;;;1.00;;
595;SDS011;19946;49.306;11.350;2023-04-25T03:10:38;1.00;;;1.00;;
595;SDS011;19946;49.306;11.350;2023-04-25T03:13:41;0.80;;;0.80;;
595;SDS011;19946;49.306;11.350;2023-04-25T03:16:43;0.90;;;0.90;;
595;SDS011;19946;49.306;11.350;2023-04-25T03:19:43;0.90;;;0.90;;
595;SDS011;19946;49.306;11.350;2023-04-25T03:22:44;0.70;;;0.70;;
595;SDS011;19946;49.306;11.350;2023-04-25T03:25:44;0.70;;;0.70;;
595;SDS011;19946;49.306;11.350;2023-04-25T03:28:45;0.77;;;0.77;;
595;SDS011;19946;49.306;11.350;2023-04-25T03:31:46;0.70;;;0.70;;
595;SDS011;19946;49.306;11.350;2023-04-25T03:34:47;0.50;;;0.50;;
595;SDS011;19946;49.306;11.350;2023-04-25T03:37:47;0.60;;;0.60;;
595;SDS011;19946;49.306;11.350;2023-04-25T03:40:53;0.50;;;0.50;;
595;SDS011;19946;49.306;11.350;2023-04-25T03:43:59;0.60;;;0.60;;
595;SDS011;19946;49.306;11.350;2023-04-25T03:47:00;0.40;;;0.40;;
595;SDS011;19946;49.306;11.350;2023-04-25T03:50:01;0.30;;;0.30;;
595;SDS011;19946;49.306;11.350;2023-04-25T03:53:03;0.30;;;0.30;;
595;SDS011;19946;49.306;11.350;2023-04-25T03:56:11;0.30;;;0.30;;
595;SDS011;19946;49.306;11.350;2023-04-25T03:59:13;0.40;;;0.40;;
595;SDS011;19946;49.306;11.350;2023-04-25T04:02:13;0.50;;;0.50;;
595;SDS011;19946;49.306;11.350;2023-04-25T04:05:15;0.40;;;0.40;;
595;SDS011;19946;49.306;11.350;2023-04-25T04:08:21;0.60;;;0.60;;
595;SDS011;19946;49.306;11.350;2023-04-25T04:11:22;0.50;;;0.50;;
595;SDS011;19946;49.306;11.350;2023-04-25T04:14:22;0.40;;;0.40;;
595;SDS011;19946;49.306;11.350;2023-04-25T04:17:24;0.47;;;0.47;;
595;SDS011;19946;49.306;11.350;2023-04-25T04:20:25;0.40;;;0.40;;
595;SDS011;19946;49.306;11.350;2023-04-25T04:23:26;0.40;;;0.40;;
595;SDS011;19946;49.306;11.350;2023-04-25T04:26:28;0.80;;;0.80;;
595;SDS011;19946;49.306;11.350;2023-04-25T04:29:41;0.43;;;0.43;;
595;SDS011;19946;49.306;11.350;2023-04-25T04:32:48;0.43;;;0.43;;
595;SDS011;19946;49.306;11.350;2023-04-25T04:35:50;0.50;;;0.50;;
595;SDS011;19946;49.306;11.350;2023-04-25T04:38:52;0.40;;;0.40;;
595;SDS011;19946;49.306;11.350;2023-04-25T04:42:07;0.40;;;0.40;;
595;SDS011;19946;49.306;11.350;2023-04-25T04:45:28;0.40;;;0.40;;
595;SDS011;19946;49.306;11.350;2023-04-25T04:48:44;0.40;;;0.40;;
595;SDS011;19946;49.306;11.350;2023-04-25T04:51:54;0.30;;;0.30;;
595;SDS011;19946;49.306;11.350;2023-04-25T04:55:24;0.30;;;0.30;;
595;SDS011;19946;49.306;11.350;2023-04-25T04:59:02;0.40;;;0.40;;
595;SDS011;19946;49.306;11.350;2023-04-25T05:02:16;0.50;;;0.50;;
595;SDS011;19946;49.306;11.350;2023-04-25T05:05:39;0.60;;;0.60;;
595;SDS011;19946;49.306;11.350;2023-04-25T05:08:58;0.53;;;0.53;;
595;SDS011;19946;49.306;11.350;2023-04-25T05:12:17;0.50;;;0.50;;
595;SDS011;19946;49.306;11.350;2023-04-25T05:15:30;0.50;;;0.50;;
595;SDS011;19946;49.306;11.350;2023-04-25T05:18:49;0.50;;;0.50;;
595;SDS011;19946;49.306;11.350;2023-04-25T05:22:22;0.53;;;0.53;;
595;SDS011;19946;49.306;11.350;2023-04-25T05:25:34;0.60;;;0.60;;
595;SDS011;19946;49.306;11.350;2023-04-25T05:29:03;0.80;;;0.80;;
595;SDS011;19946;49.306;11.350;2023-04-25T05:32:19;0.50;;;0.50;;
595;SDS011;19946;49.306;11.350;2023-04-25T05:35:21;0.60;;;0.60;;
595;SDS011;19946;49.306;11.350;2023-04-25T05:38:22;0.70;;;0.70;;
595;SDS011;19946;49.306;11.350;2023-04-25T05:41:41;0.50;;;0.50;;
595;SDS011;19946;49.306;11.350;2023-04-25T05:45:17;0.60;;;0.60;;
595;SDS011;19946;49.306;11.350;2023-04-25T05:48:28;0.80;;;0.80;;
595;SDS011;19946;49.306;11.350;2023-04-25T05:51:52;1.17;;;1.17;;
595;SDS011;19946;49.306;11.350;2023-04-25T05:55:03;1.10;;;1.10;;
595;SDS011;19946;49.306;11.350;2023-04-25T05:58:05;1.00;;;1.00;;
595;SDS011;19946;49.306;11.350;2023-04-25T06:01:07;0.80;;;0.80;;
595;SDS011;19946;49.306;11.350;2023-04-25T06:04:09;0.80;;;0.80;;
595;SDS011;19946;49.306;11.350;2023-04-25T06:07:09;1.17;;;1.17;;
595;SDS011;19946;49.306;11.350;2023-04-25T06:10:10;0.80;;;0.80;;
595;SDS011;19946;49.306;11.350;2023-04-25T06:13:11;0.90;;;0.90;;
595;SDS011;19946;49.306;11.350;2023-04-25T06:16:12;1.10;;;1.10;;
595;SDS011;19946;49.306;11.350;2023-04-25T06:19:13;1.33;;;1.33;;
595;SDS011;19946;49.306;11.350;2023-04-25T06:22:13;1.10;;;1.10;;
595;SDS011;19946;49.306;11.350;2023-04-25T06:25:15;1.17;;;1.17;;
595;SDS011;19946;49.306;11.350;2023-04-25T06:28:15;1.30;;;1.30;;
595;SDS011;19946;49.306;11.350;2023-04-25T06:31:17;1.10;;;1.10;;
595;SDS011;19946;49.306;11.350;2023-04-25T06:34:19;0.80;;;0.80;;
595;SDS011;19946;49.306;11.350;2023-04-25T06:37:19;0.80;;;0.80;;
595;SDS011;19946;49.306;11.350;2023-04-25T06:40:20;1.37;;;1.37;;
595;SDS011;19946;49.306;11.350;2023-04-25T06:43:20;0.90;;;0.90;;
595;SDS011;19946;49.306;11.350;2023-04-25T06:46:35;1.00;;;1.00;;
595;SDS011;19946;49.306;11.350;2023-04-25T06:49:38;1.10;;;1.10;;
595;SDS011;19946;49.306;11.350;2023-04-25T06:52:39;1.27;;;1.27;;
595;SDS011;19946;49.306;11.350;2023-04-25T06:55:39;1.30;;;1.30;;
595;SDS011;19946;49.306;11.350;2023-04-25T06:58:50;1.10;;;1.10;;
595;SDS011;19946;49.306;11.350;2023-04-25T07:01:58;1.20;;;1.20;;
595;SDS011;19946;49.306;11.350;2023-04-25T07:05:00;1.10;;;1.10;;
595;SDS011;19946;49.306;11.350;2023-04-25T07:08:00;1.00;;;1.00;;
595;SDS011;19946;49.306;11.350;2023-04-25T07:11:01;1.30;;;1.30;;
595;SDS011;19946;49.306;11.350;2023-04-25T07:14:02;1.20;;;1.20;;
595;SDS011;19946;49.306;11.350;2023-04-25T07:17:03;1.20;;;1.20;;
595;SDS011;19946;49.306;11.350;2023-04-25T07:20:05;1.20;;;1.20;;
595;SDS011;19946;49.306;11.350;2023-04-25T07:23:07;1.50;;;1.50;;
595;SDS011;19946;49.306;11.350;2023-04-25T07:26:07;1.20;;;1.20;;
595;SDS011;19946;49.306;11.350;2023-04-25T07:29:08;1.00;;;1.00;;
595;SDS011;19946;49.306;11.350;2023-04-25T07:32:09;2.17;;;2.17;;
595;SDS011;19946;49.306;11.350;2023-04-25T07:35:12;1.80;;;1.80;;
595;SDS011;19946;49.306;11.350;2023-04-25T07:38:12;1.23;;;1.23;;
595;SDS011;19946;49.306;11.350;2023-04-25T07:41:13;1.90;;;1.90;;
595;SDS011;19946;49.306;11.350;2023-04-25T07:44:14;1.13;;;1.13;;
595;SDS011;19946;49.306;11.350;2023-04-25T07:47:15;1.40;;;1.40;;
595;SDS011;19946;49.306;11.350;2023-04-25T07:50:16;1.30;;;1.30;;
595;SDS011;19946;49.306;11.350;2023-04-25T07:53:16;1.10;;;1.10;;
595;SDS011;19946;49.306;11.350;2023-04-25T07:56:32;1.40;;;1.40;;
595;SDS011;19946;49.306;11.350;2023-04-25T07:59:32;1.50;;;1.50;;
595;SDS011;19946;49.306;11.350;2023-04-25T08:02:35;1.77;;;1.77;;
595;SDS011;19946;49.306;11.350;2023-04-25T08:05:36;1.83;;;1.83;;
595;SDS011;19946;49.306;11.350;2023-04-25T08:08:39;1.60;;;1.60;;
595;SDS011;19946;49.306;11.350;2023-04-25T08:11:40;1.00;;;1.00;;
595;SDS011;19946;49.306;11.350;2023-04-25T08:14:43;1.47;;;1.47;;
595;SDS011;19946;49.306;11.350;2023-04-25T08:17:44;1.33;;;1.33;;
595;SDS011;19946;49.306;11.350;2023-04-25T08:20:45;1.27;;;1.27;;
595;SDS011;19946;49.306;11.350;2023-04-25T08:23:47;0.90;;;0.90;;
595;SDS011;19946;49.306;11.350;2023-04-25T08:26:56;1.40;;;1.40;;
595;SDS011;19946;49.306;11.350;2023-04-25T08:29:58;0.70;;;0.70;;
595;SDS011;19946;49.306;11.350;2023-04-25T08:32:59;0.60;;;0.60;;
595;SDS011;19946;49.306;11.350;2023-04-25T08:36:22;0.60;;;0.60;;
595;SDS011;19946;49.306;11.350;2023-04-25T08:39:23;0.40;;;0.40;;
595;SDS011;19946;49.306;11.350;2023-04-25T08:42:57;0.60;;;0.60;;
595;SDS011;19946;49.306;11.350;2023-04-25T08:45:59;0.60;;;0.60;;
595;SDS011;19946;49.306;11.350;2023-04-25T08:49:20;0.83;;;0.83;;
595;SDS011;19946;49.306;11.350;2023-04-25T08:52:22;0.77;;;0.77;;
595;SDS011;19946;49.306;11.350;2023-04-25T08:55:25;0.70;;;0.70;;
595;SDS011;19946;49.306;11.350;2023-04-25T08:58:31;0.70;;;0.70;;
595;SDS011;19946;49.306;11.350;2023-04-25T09:01:32;0.83;;;0.83;;
595;SDS011;19946;49.306;11.350;2023-04-25T09:04:34;0.90;;;0.90;;
595;SDS011;19946;49.306;11.350;2023-04-25T09:07:37;0.60;;;0.60;;
595;SDS011;19946;49.306;11.350;2023-04-25T09:10:38;0.80;;;0.80;;
595;SDS011;19946;49.306;11.350;2023-04-25T09:13:39;0.60;;;0.60;;
595;SDS011;19946;49.306;11.350;2023-04-25T09:16:57;1.00;;;1.00;;
595;SDS011;19946;49.306;11.350;2023-04-25T09:20:14;0.70;;;0.70;;
595;SDS011;19946;49.306;11.350;2023-04-25T09:23:15;0.93;;;0.93;;
595;SDS011;19946;49.306;11.350;2023-04-25T09:26:20;1.30;;;1.30;;
595;SDS011;19946;49.306;11.350;2023-04-25T09:29:24;1.00;;;1.00;;
595;SDS011;19946;49.306;11.350;2023-04-25T09:32:29;1.20;;;1.20;;
595;SDS011;19946;49.306;11.350;2023-04-25T09:35:35;1.60;;;1.60;;
595;SDS011;19946;49.306;11.350;2023-04-25T09:38:42;1.40;;;1.40;;
595;SDS011;19946;49.306;11.350;2023-04-25T09:41:53;1.90;;;1.90;;
595;SDS011;19946;49.306;11.350;2023-04-25T09:44:55;1.60;;;1.60;;
595;SDS011;19946;49.306;11.350;2023-04-25T09:47:56;1.70;;;1.70;;
595;SDS011;19946;49.306;11.350;2023-04-25T09:51:08;1.57;;;1.57;;
595;SDS011;19946;49.306;11.350;2023-04-25T09:54:10;1.20;;;1.20;;
595;SDS011;19946;49.306;11.350;2023-04-25T09:57:19;1.10;;;1.10;;
595;SDS011;19946;49.306;11.350;2023-04-25T10:00:21;1.10;;;1.10;;
595;SDS011;19946;49.306;11.350;2023-04-25T10:03:22;1.20;;;1.20;;
595;SDS011;19946;49.306;11.350;2023-04-25T10:06:45;1.50;;;1.50;;
595;SDS011;19946;49.306;11.350;2023-04-25T10:09:52;1.10;;;1.10;;
595;SDS011;19946;49.306;11.350;2023-04-25T10:13:12;1.10;;;1.10;;
595;SDS011;19946;49.306;11.350;2023-04-25T10:16:14;1.60;;;1.60;;
595;SDS011;19946;49.306;11.350;2023-04-25T10:19:34;1.50;;;1.50;;
595;SDS011;19946;49.306;11.350;2023-04-25T10:22:35;1.80;;;1.80;;
595;SDS011;19946;49.306;11.350;2023-04-25T10:25:38;1.70;;;1.70;;
595;SDS011;19946;49.306;11.350;2023-04-25T10:28:56;1.63;;;1.63;;
595;SDS011;19946;49.306;11.350;2023-04-25T10:32:00;1.60;;;1.60;;
595;SDS011;19946;49.306;11.350;2023-04-25T10:35:12;1.60;;;1.60;;
595;SDS011;19946;49.306;11.350;2023-04-25T10:38:24;1.97;;;1.97;;
595;SDS011;19946;49.306;11.350;2023-04-25T10:41:25;1.50;;;1.50;;
595;SDS011;19946;49.306;11.350;2023-04-25T10:44:29;1.30;;;1.30;;
595;SDS011;19946;49.306;11.350;2023-04-25T10:47:36;1.20;;;1.20;;
595;SDS011;19946;49.306;11.350;2023-04-25T10:50:43;1.30;;;1.30;;
595;SDS011;19946;49.306;11.350;2023-04-25T10:53:44;1.30;;;1.30;;
595;SDS011;19946;49.306;11.350;2023-04-25T10:56:59;1.50;;;1.50;;
595;SDS011;19946;49.306;11.350;2023-04-25T11:00:00;2.07;;;2.07;;
595;SDS011;19946;49.306;11.350;2023-04-25T11:03:17;1.80;;;1.80;;
595;SDS011;19946;49.306;11.350;2023-04-25T11:06:22;1.70;;;1.70;;
595;SDS011;19946;49.306;11.350;2023-04-25T11:09:27;1.80;;;1.80;;
595;SDS011;19946;49.306;11.350;2023-04-25T11:12:29;1.80;;;1.80;;
595;SDS011;19946;49.306;11.350;2023-04-25T11:15:31;1.83;;;1.83;;
595;SDS011;19946;49.306;11.350;2023-04-25T11:18:31;1.40;;;1.40;;
595;SDS011;19946;49.306;11.350;2023-04-25T11:21:32;1.60;;;1.60;;
595;SDS011;19946;49.306;11.350;2023-04-25T11:24:34;1.30;;;1.30;;
595;SDS011;19946;49.306;11.350;2023-04-25T11:27:39;1.20;;;1.20;;
595;SDS011;19946;49.306;11.350;2023-04-25T11:30:50;1.20;;;1.20;;
595;SDS011;19946;49.306;11.350;2023-04-25T11:33:50;1.20;;;1.20;;
595;SDS011;19946;49.306;11.350;2023-04-25T11:36:53;1.20;;;1.20;;
595;SDS011;19946;49.306;11.350;2023-04-25T11:39:54;1.40;;;1.40;;
595;SDS011;19946;49.306;11.350;2023-04-25T11:42:54;1.50;;;1.50;;
595;SDS011;19946;49.306;11.350;2023-04-25T11:45:55;1.40;;;1.40;;
595;SDS011;19946;49.306;11.350;2023-04-25T11:48:55;1.67;;;1.67;;
595;SDS011;19946;49.306;11.350;2023-04-25T11:51:55;1.40;;;1.40;;
595;SDS011;19946;49.306;11.350;2023-04-25T11:54:56;1.40;;;1.40;;
595;SDS011;19946;49.306;11.350;2023-04-25T11:57:59;1.33;;;1.33;;
595;SDS011;19946;49.306;11.350;2023-04-25T12:01:00;1.50;;;1.50;;
595;SDS011;19946;49.306;11.350;2023-04-25T12:04:13;1.50;;;1.50;;
595;SDS011;19946;49.306;11.350;2023-04-25T12:07:18;1.50;;;1.50;;
595;SDS011;19946;49.306;11.350;2023-04-25T12:10:21;1.50;;;1.50;;
595;SDS011;19946;49.306;11.350;2023-04-25T12:13:25;1.30;;;1.30;;
595;SDS011;19946;49.306;11.350;2023-04-25T12:16:26;1.30;;;1.30;;
595;SDS011;19946;49.306;11.350;2023-04-25T12:19:32;1.30;;;1.30;;
595;SDS011;19946;49.306;11.350;2023-04-25T12:22:33;1.17;;;1.17;;
595;SDS011;19946;49.306;11.350;2023-04-25T12:25:37;1.30;;;1.30;;
595;SDS011;19946;49.306;11.350;2023-04-25T12:28:39;1.37;;;1.37;;
595;SDS011;19946;49.306;11.350;2023-04-25T12:31:45;1.20;;;1.20;;
595;SDS011;19946;49.306;11.350;2023-04-25T12:34:46;1.10;;;1.10;;
595;SDS011;19946;49.306;11.350;2023-04-25T12:37:47;1.20;;;1.20;;
595;SDS011;19946;49.306;11.350;2023-04-25T12:40:47;1.10;;;1.10;;
595;SDS011;19946;49.306;11.350;2023-04-25T12:43:47;1.20;;;1.20;;
595;SDS011;19946;49.306;11.350;2023-04-25T12:46:48;1.20;;;1.20;;
595;SDS011;19946;49.306;11.350;2023-04-25T12:49:48;1.40;;;1.40;;
595;SDS011;19946;49.306;11.350;2023-04-25T12:52:48;1.40;;;1.40;;
595;SDS011;19946;49.306;11.350;2023-04-25T12:55:49;1.37;;;1.37;;
595;SDS011;19946;49.306;11.350;2023-04-25T12:58:49;1.20;;;1.20;;
595;SDS011;19946;49.306;11.350;2023-04-25T13:01:49;1.20;;;1.20;;
595;SDS011;19946;49.306;11.350;2023-04-25T13:04:50;1.20;;;1.20;;
595;SDS011;19946;49.306;11.350;2023-04-25T13:07:51;1.00;;;1.00;;
595;SDS011;19946;49.306;11.350;2023-04-25T13:10:51;1.10;;;1.10;;
595;SDS011;19946;49.306;11.350;2023-04-25T13:13:52;1.20;;;1.20;;
595;SDS011;19946;49.306;11.350;2023-04-25T13:16:52;1.07;;;1.07;;
595;SDS011;19946;49.306;11.350;2023-04-25T13:19:53;1.10;;;1.10;;
595;SDS011;19946;49.306;11.350;2023-04-25T13:22:53;1.10;;;1.10;;
595;SDS011;19946;49.306;11.350;2023-04-25T13:25:53;1.00;;;1.00;;
595;SDS011;19946;49.306;11.350;2023-04-25T13:28:55;1.03;;;1.03;;
595;SDS011;19946;49.306;11.350;2023-04-25T13:31:55;1.10;;;1.10;;
595;SDS011;19946;49.306;11.350;2023-04-25T13:34:56;1.00;;;1.00;;
595;SDS011;19946;49.306;11.350;2023-04-25T13:37:56;0.93;;;0.93;;
595;SDS011;19946;49.306;11.350;2023-04-25T13:40:56;1.00;;;1.00;;
595;SDS011;19946;49.306;11.350;2023-04-25T13:43:57;1.00;;;1.00;;
595;SDS011;19946;49.306;11.350;2023-04-25T13:46:57;1.37;;;1.37;;
595;SDS011;19946;49.306;11.350;2023-04-25T13:49:57;1.00;;;1.00;;
595;SDS011;19946;49.306;11.350;2023-04-25T13:52:58;1.10;;;1.10;;
595;SDS011;19946;49.306;11.350;2023-04-25T13:55:58;0.80;;;0.80;;
595;SDS011;19946;49.306;11.350;2023-04-25T13:58:58;0.90;;;0.90;;
595;SDS011;19946;49.306;11.350;2023-04-25T14:01:59;0.70;;;0.70;;
595;SDS011;19946;49.306;11.350;2023-04-25T14:04:59;0.70;;;0.70;;
595;SDS011;19946;49.306;11.350;2023-04-25T14:08:00;0.90;;;0.90;;
595;SDS011;19946;49.306;11.350;2023-04-25T14:11:00;0.90;;;0.90;;
595;SDS011;19946;49.306;11.350;2023-04-25T14:14:00;0.90;;;0.90;;
595;SDS011;19946;49.306;11.350;2023-04-25T14:17:01;0.90;;;0.90;;
595;SDS011;19946;49.306;11.350;2023-04-25T14:20:01;1.00;;;1.00;;
595;SDS011;19946;49.306;11.350;2023-04-25T14:23:01;1.00;;;1.00;;
595;SDS011;19946;49.306;11.350;2023-04-25T14:26:02;0.80;;;0.80;;
595;SDS011;19946;49.306;11.350;2023-04-25T14:29:04;0.80;;;0.80;;
595;SDS011;19946;49.306;11.350;2023-04-25T14:32:06;0.70;;;0.70;;
595;SDS011;19946;49.306;11.350;2023-04-25T14:35:06;0.70;;;0.70;;
595;SDS011;19946;49.306;11.350;2023-04-25T14:38:07;0.70;;;0.70;;
595;SDS011;19946;49.306;11.350;2023-04-25T14:41:07;0.80;;;0.80;;
595;SDS011;19946;49.306;11.350;2023-04-25T14:44:09;0.80;;;0.80;;
595;SDS011;19946;49.306;11.350;2023-04-25T14:47:09;0.70;;;0.70;;
595;SDS011;19946;49.306;11.350;2023-04-25T14:50:10;0.80;;;0.80;;
595;SDS011;19946;49.306;11.350;2023-04-25T14:53:10;0.70;;;0.70;;
595;SDS011;19946;49.306;11.350;2023-04-25T14:56:11;0.73;;;0.73;;
595;SDS011;19946;49.306;11.350;2023-04-25T14:59:12;0.70;;;0.70;;
595;SDS011;19946;49.306;11.350;2023-04-25T15:02:12;0.70;;;0.70;;
595;SDS011;19946;49.306;11.350;2023-04-25T15:05:13;0.80;;;0.80;;
595;SDS011;19946;49.306;11.350;2023-04-25T15:08:14;0.90;;;0.90;;
595;SDS011;19946;49.306;11.350;2023-04-25T15:11:14;0.70;;;0.70;;
595;SDS011;19946;49.306;11.350;2023-04-25T15:14:16;0.60;;;0.60;;
595;SDS011;19946;49.306;11.350;2023-04-25T15:17:17;0.60;;;0.60;;
595;SDS011;19946;49.306;11.350;2023-04-25T15:20:17;0.50;;;0.50;;
595;SDS011;19946;49.306;11.350;2023-04-25T15:23:18;0.60;;;0.60;;
595;SDS011;19946;49.306;11.350;2023-04-25T15:26:19;0.60;;;0.60;;
595;SDS011;19946;49.306;11.350;2023-04-25T15:29:19;0.70;;;0.70;;
595;SDS011;19946;49.306;11.350;2023-04-25T15:32:20;0.57;;;0.57;;
595;SDS011;19946;49.306;11.350;2023-04-25T15:35:20;0.50;;;0.50;;
595;SDS011;19946;49.306;11.350;2023-04-25T15:38:21;0.60;;;0.60;;
595;SDS011;19946;49.306;11.350;2023-04-25T15:41:21;0.60;;;0.60;;
595;SDS011;19946;49.306;11.350;2023-04-25T15:44:21;0.60;;;0.60;;
595;SDS011;19946;49.306;11.350;2023-04-25T15:47:22;0.60;;;0.60;;
595;SDS011;19946;49.306;11.350;2023-04-25T15:50:22;0.70;;;0.70;;
595;SDS011;19946;49.306;11.350;2023-04-25T15:53:23;0.70;;;0.70;;
595;SDS011;19946;49.306;11.350;2023-04-25T15:56:24;0.63;;;0.63;;
595;SDS011;19946;49.306;11.350;2023-04-25T15:59:24;0.70;;;0.70;;
595;SDS011;19946;49.306;11.350;2023-04-25T16:02:24;0.70;;;0.70;;
595;SDS011;19946;49.306;11.350;2023-04-25T16:05:25;0.60;;;0.60;;
595;SDS011;19946;49.306;11.350;2023-04-25T16:08:25;0.60;;;0.60;;
595;SDS011;19946;49.306;11.350;2023-04-25T16:11:28;0.50;;;0.50;;
595;SDS011;19946;49.306;11.350;2023-04-25T16:14:29;0.60;;;0.60;;
595;SDS011;19946;49.306;11.350;2023-04-25T16:17:30;0.53;;;0.53;;
595;SDS011;19946;49.306;11.350;2023-04-25T16:20:32;0.60;;;0.60;;
595;SDS011;19946;49.306;11.350;2023-04-25T16:23:32;0.60;;;0.60;;
595;SDS011;19946;49.306;11.350;2023-04-25T16:26:33;0.50;;;0.50;;
595;SDS011;19946;49.306;11.350;2023-04-25T16:29:33;0.60;;;0.60;;
595;SDS011;19946;49.306;11.350;2023-04-25T16:32:34;0.60;;;0.60;;
595;SDS011;19946;49.306;11.350;2023-04-25T16:35:35;0.50;;;0.50;;
595;SDS011;19946;49.306;11.350;2023-04-25T16:38:35;0.60;;;0.60;;
595;SDS011;19946;49.306;11.350;2023-04-25T16:41:38;0.50;;;0.50;;
595;SDS011;19946;49.306;11.350;2023-04-25T16:44:38;0.60;;;0.60;;
595;SDS011;19946;49.306;11.350;2023-04-25T16:47:39;0.50;;;0.50;;
595;SDS011;19946;49.306;11.350;2023-04-25T16:50:39;0.50;;;0.50;;
595;SDS011;19946;49.306;11.350;2023-04-25T16:53:40;0.50;;;0.50;;
595;SDS011;19946;49.306;11.350;2023-04-25T16:56:41;0.40;;;0.40;;
595;SDS011;19946;49.306;11.350;2023-04-25T16:59:41;0.40;;;0.40;;
595;SDS011;19946;49.306;11.350;2023-04-25T17:02:41;0.40;;;0.40;;
595;SDS011;19946;49.306;11.350;2023-04-25T17:05:42;0.50;;;0.50;;
595;SDS011;19946;49.306;11.350;2023-04-25T17:08:42;0.40;;;0.40;;
595;SDS011;19946;49.306;11.350;2023-04-25T17:11:42;0.53;;;0.53;;
595;SDS011;19946;49.306;11.350;2023-04-25T17:14:43;0.50;;;0.50;;
595;SDS011;19946;49.306;11.350;2023-04-25T17:17:45;0.53;;;0.53;;
595;SDS011;19946;49.306;11.350;2023-04-25T17:20:45;0.50;;;0.50;;
595;SDS011;19946;49.306;11.350;2023-04-25T17:23:46;0.50;;;0.50;;
595;SDS011;19946;49.306;11.350;2023-04-25T17:26:46;0.43;;;0.43;;
595;SDS011;19946;49.306;11.350;2023-04-25T17:29:46;0.40;;;0.40;;
595;SDS011;19946;49.306;11.350;2023-04-25T17:32:47;0.50;;;0.50;;
595;SDS011;19946;49.306;11.350;2023-04-25T17:35:47;0.50;;;0.50;;
595;SDS011;19946;49.306;11.350;2023-04-25T17:38:47;0.50;;;0.50;;
595;SDS011;19946;49.306;11.350;2023-04-25T17:41:48;0.40;;;0.40;;
595;SDS011;19946;49.306;11.350;2023-04-25T17:44:48;0.50;;;0.50;;
595;SDS011;19946;49.306;11.350;2023-04-25T17:47:49;0.40;;;0.40;;
595;SDS011;19946;49.306;11.350;2023-04-25T17:50:49;0.50;;;0.50;;
595;SDS011;19946;49.306;11.350;2023-04-25T17:53:50;0.40;;;0.40;;
595;SDS011;19946;49.306;11.350;2023-04-25T17:56:51;0.40;;;0.40;;
595;SDS011;19946;49.306;11.350;2023-04-25T17:59:52;0.30;;;0.30;;
595;SDS011;19946;49.306;11.350;2023-04-25T18:02:53;0.40;;;0.40;;
595;SDS011;19946;49.306;11.350;2023-04-25T18:05:53;0.40;;;0.40;;
595;SDS011;19946;49.306;11.350;2023-04-25T18:08:53;0.50;;;0.50;;
595;SDS011;19946;49.306;11.350;2023-04-25T18:11:56;0.40;;;0.40;;
595;SDS011;19946;49.306;11.350;2023-04-25T18:14:57;0.50;;;0.50;;
595;SDS011;19946;49.306;11.350;2023-04-25T18:17:57;0.40;;;0.40;;
595;SDS011;19946;49.306;11.350;2023-04-25T18:20:59;0.50;;;0.50;;
595;SDS011;19946;49.306;11.350;2023-04-25T18:24:00;0.50;;;0.50;;
595;SDS011;19946;49.306;11.350;2023-04-25T18:27:00;0.50;;;0.50;;
595;SDS011;19946;49.306;11.350;2023-04-25T18:30:09;0.50;;;0.50;;
595;SDS011;19946;49.306;11.350;2023-04-25T18:33:10;0.60;;;0.60;;
595;SDS011;19946;49.306;11.350;2023-04-25T18:36:10;0.50;;;0.50;;
595;SDS011;19946;49.306;11.350;2023-04-25T18:39:10;0.57;;;0.57;;
595;SDS011;19946;49.306;11.350;2023-04-25T18:42:11;0.40;;;0.40;;